Loisir ou Compétition : Rejoignez un Club de la Fédération

Résultats

JB CUP U 12

VALLOIRE

SC Dames

Jury de Compétition

Délégué Technique :
 
Arbitre :
 
Assistant :
 
Dir. Epreuve :
 

Caractéristiques de la Piste

Piste :
LA MARMOTTE
Départ :
 
Arrivée :
 
Dénivelé :
 
Homologation :
2929/12/12

Manche 1

Nombre de Portes :
 
Heure de Départ :
 
Traceur :
 
Ouvreurs A :
 
Ouvreurs B :
 
Ouvreurs C :
 
Ouvreurs D :
 
Ouvreurs E :
 
Temps :
 
Neige :
 

Manche 2

Nombre de Portes :
 
Heure de Départ :
 
Traceur :
 
Ouvreurs A :
 
Ouvreurs B :
 
Ouvreurs C :
 
Ouvreurs D :
 
Ouvreurs E :
 
Température Départ :
 
Température Arrivée :
 

Pénalité Appliquée :
 

Catégorie :
U12
Clt Dos Clt/Cat Code An Nom Prénom Com Club Tps M1 Tps M2 Tps Tot Pts
Classés
1 166 1/U12 FFS2676794 2007 LAO LILI MEIJE DA SC ALPE HUEZ 33.87 34.33 1:08.20
2 243 2/U12 FFS2678860 2007 PERRIN ALINE SA SC MENUIRES 35.07 34.41 1:09.48
3 219 3/U12 FFS2683205 2007 MARREAU STELLA AP GAP ORCIERES 35.29 34.35 1:09.64
4 205 4/U12 FFS2682900 2007 DI EMANUELE CARLA SA ST FRANCOIS 35.21 34.67 1:09.88
5 161 5/U12 FFS2683269 2007 MINERY AMBRE AP CSH BRIANCON 34.91 35.67 1:10.58
6 157 6/U12 FFS2687332 2007 MOTTARD YSALINE SA CS TOUSSUIRE 35.44 35.21 1:10.65
7 209 7/U12 FFS2675063 2007 BOUSQUET ORIANE SA SC ROCHETTE 34.14 37.03 1:11.17
8 234 8/U12 FFS2676542 2008 VIONNET CLARA SA CS ALBIEZ 34.45 36.76 1:11.21
9 225 9/U12 FFS2681989 2007 OWEN EMILY DA SC ALPE HUEZ 35.19 36.37 1:11.56
10 222 10/U12 FFS2681031 2007 MAZET LILOU DA SC DEUX ALPE 34.75 36.94 1:11.69
11 167 11/U12 FFS2670920 2007 CRAFFE MAELYS SA CS VAL CENIS 34.97 36.99 1:11.96
12 163 12/U12 FFS2670495 2007 BOROT ANGELE SA CS VAL CENIS 35.69 36.44 1:12.13
13 158 13/U12 FFS2681667 2008 ARNAUD MELINA SA CS KARELLIS 36.73 35.69 1:12.42
14 180 14/U12 FFS2680681 2007 BLAIS JULIETTE SA CS TOUSSUIRE 35.51 36.93 1:12.44
15 246 15/U12 FFS2680281 2007 GUYON PAULINE AP SAUZE BARCEL 35.35 37.28 1:12.63
16 165 16/U12 FFS2680309 2007 THOMAS ANOUK SA CS VAL CENIS 38.81 33.96 1:12.77
17 160 17/U12 FFS2683268 2007 MORARD LILY ROSE AP CSH BRIANCON 36.21 36.75 1:12.96
17 189 17/U12 FFS2681982 2007 DEBUS MAELYS DA SC ALPE HUEZ 35.64 37.32 1:12.96
19 224 19/U12 FFS2672817 2007 MARIN LAMELLET ZELIE SA CREST VOLAND 36.39 36.60 1:12.99
20 231 20/U12 FFS2675900 2007 BOUVARD LEANIE SA SSC VALLOIRE 36.38 36.92 1:13.30
21 239 21/U12 FFS2677566 2007 DOMPNIER LAURA SA CS TOUSSUIRE 38.19 35.23 1:13.42
22 202 22/U12 FFS2688997 2007 GAVOILLE LILOU AP CSH BRIANCON 36.55 37.16 1:13.71
23 168 23/U12 FFS2670919 2007 GUIJARRO ROXANE SA CS VAL CENIS 36.19 37.95 1:14.14
24 155 24/U12 FFS2679975 2007 ARGOUD PAULINE DA CS ST PIERRE 36.14 38.22 1:14.36
25 185 25/U12 FFS2690803 2007 BEURRIER VICTORIA SA CREST VOLAND 38.76 35.73 1:14.49
26 187 26/U12 FFS2688851 2008 BANNISTER LOLA DA SC ALPE HUEZ 35.69 39.48 1:15.17
27 196 27/U12 FFS2689092 2008 MEUILLET ARWEN SA ST SORLIN 37.29 37.89 1:15.18
28 197 28/U12 FFS2671480 2007 PRIKRYL IVONA SA CO VAL THO 38.50 36.95 1:15.45
29 235 29/U12 FFS2687771 2007 FRASCONI LOU SA CS LA NORMA 38.28 37.22 1:15.50
30 183 30/U12 FFS2673744 2007 FILLIOL LISA SA CS VAL CENIS 38.50 37.02 1:15.52
31 181 31/U12 FFS2683272 2008 FINE LEA AP CSH BRIANCON 37.64 38.60 1:16.24
32 214 32/U12 FFS2678090 2008 SCOTT LABBE MAISIE SA CO VAL THO 37.75 38.51 1:16.26
33 200 33/U12 FFS2676521 2007 BONNET LANDRE INES AP SERRE CHEVAL 37.27 39.06 1:16.33
34 170 34/U12 FFS2679795 2007 BARON ELSA SA SC CHAMBERY 39.73 36.73 1:16.46
35 174 35/U12 FFS2671505 2007 GRAVIER ANAIS SA CS VAL CENIS 37.15 39.39 1:16.54
36 184 36/U12 FFS2688071 2008 GLEIZE LYANNA AP GAP ORCIERES 37.57 39.00 1:16.57
36 237 36/U12 FFS2689567 2008 LEGUEREAU HANNA SA CS TIGNES 37.83 38.74 1:16.57
38 182 38/U12 FFS2689292 2008 REY MANON SA CS TIGNES 36.71 39.90 1:16.61
39 208 39/U12 FFS2687877 2008 BOSSELUT LILY SA TCAM 37.41 40.15 1:17.56
40 232 40/U12 FFS2687970 2008 CADARS BOIS URANIE SA TCAM 38.61 38.98 1:17.59
41 218 41/U12 FFS2677551 2007 RAPIN LIANA AP SC MONGENEV 38.73 38.96 1:17.69
42 151 42/U12 FFS2686278 2008 CARDESI GYLIANE DA CHAMROUSSE S 37.36 40.74 1:18.10
43 226 43/U12 FFS2681648 2008 LIZZI JULIETTE DA CO 7 LAUX GR 37.89 40.28 1:18.17
44 154 44/U12 FFS2691626 2007 CECH YELENA SA CO VAL THO 39.06 39.39 1:18.45
44 191 44/U12 FFS2681538 2008 ESPITALLIER DUMAS LOUISE AP SC D'ANCELLE 36.85 41.60 1:18.45
46 217 46/U12 FFS2685365 2008 DEVELAY JADE SA SC CHAMBERY 37.39 41.11 1:18.50
47 245 47/U12 FFS2688373 2008 PARIZEL CLEA DA SC OZ-ALLEMO 36.86 41.80 1:18.66
48 241 48/U12 FFS2683137 2007 BRENIER MYA SA CS LA NORMA 39.27 40.00 1:19.27
49 152 49/U12 FFS2676017 2008 DUBOIS TIFENN SA SC ROCHETTE 38.10 41.85 1:19.95
50 186 50/U12 FFS2681861 2008 BARRE ALIX AP SERRE CHEVAL 38.07 41.99 1:20.06
51 188 51/U12 FFS2688437 2008 DUPLOMB BERNATEAU TAMARAH DA SC ALPE HUEZ 37.71 42.94 1:20.65
52 178 52/U12 FFS2682212 2008 BARON SARAH SA SC CHAMBERY 37.95 42.82 1:20.77
53 176 53/U12 FFS2690657 2008 LANTENOIS LAURA MJ SC LANCRANS 36.64 44.25 1:20.89
54 164 54/U12 FFS2687308 2008 JOURDAN LISE DA SC ALPE HUEZ 39.96 41.00 1:20.96
55 193 55/U12 FFS2685570 2008 DUCLOS JANE DA STM 39.97 41.00 1:20.97
56 229 56/U12 FFS2689267 2008 DOUSSOT LALY SA CS TIGNES 37.87 43.44 1:21.31
57 198 57/U12 FFS2687813 2008 BONNEVIE ZELIE SA CS TIGNES 40.79 40.63 1:21.42
58 169 58/U12 FFS2688365 2008 KLEINGAERTNER LISON DA SC OZ-ALLEMO 40.19 41.27 1:21.46
59 201 59/U12 FFS2676122 2008 SUBIRATS EMA PE SC FORMIGUER 38.69 43.25 1:21.94
60 240 60/U12 FFS2683184 2007 DUGRIVEL NELLY SA SSC VALLOIRE 38.61 43.68 1:22.29
61 236 61/U12 FFS2681751 2007 THOMAS CHARLOTTE DA VOIRON SKI M 40.09 42.32 1:22.41
62 173 62/U12 FFS2689076 2008 HERY AMBRE DA SC ALPE HUEZ 38.31 44.25 1:22.56
63 206 63/U12 FFS2697327 2007 BONNAFOUS LAVIOLETTE CELI DA VOIRON SKI M 39.65 43.18 1:22.83
64 233 64/U12 FFS2686005 2008 SOUDIEUX LISON SA CS LA FECLAZ 37.42 45.45 1:22.87
65 210 65/U12 FFS2688439 2008 CANIVEZ JUDITH DA ESF ALPE D'H 39.24 43.77 1:23.01
66 207 66/U12 FFS2683096 2008 BRIDGES CARYS SA SC MENUIRES 40.91 42.86 1:23.77
67 204 67/U12 FFS2688704 2008 DUPRE THELMA AU SC LIORAN 40.94 42.99 1:23.93
68 153 68/U12 FFS2697374 2007 WALKER IVY DA SC OZ-ALLEMO 40.40 44.15 1:24.55
68 212 68/U12 FFS2691900 2007 ONOL LANG SELINN AP SC MONGENEV 40.45 44.10 1:24.55
70 177 70/U12 FFS2685164 2007 JANIN THIVOS LOUANE DA ESF ALPE D'H 40.34 44.56 1:24.90
71 179 71/U12 FFS2684449 2008 LAVENU VICTORIA SA SC CHAMBERY 39.75 45.68 1:25.43
72 192 72/U12 FFS2681986 2007 MORGILLO LORENA DA SC VAUJANY 38.64 46.90 1:25.54
73 215 73/U12 FFS2690381 2008 RAYMOND GOURDAIN MARIE AU SC LIORAN 38.90 46.69 1:25.59
74 221 74/U12 FFS2686283 2008 COLLOMB CLERC KARA DA CHAMROUSSE S 39.85 45.90 1:25.75
75 242 75/U12 FFS2696989 2008 MONTILLET CARLES JULIET DA LANS VERCORS 41.40 46.40 1:27.80
76 228 76/U12 FFS2688371 2008 WENDLING ELEA DA SC OZ-ALLEMO 43.45 44.81 1:28.26
77 247 77/U12 FFS2682308 2008 BOULLEAU LOUISE SA CS LA FECLAZ 39.24 49.15 1:28.39
78 159 78/U12 FFS2674491 2008 OUVRIER LILOU SA CREST VOLAND 37.50 50.94 1:28.44
79 150 79/U12 FFS2688271 2008 CLERICE JEANNE SA SSC VALLOIRE 44.21 45.32 1:29.53
80 220 80/U12 FFS2696987 2008 TROUILLOUD CLEA DA LANS VERCORS 44.81 45.72 1:30.53
81 199 81/U12 FFS2692559 2008 ROUSSEAU BITAN GARANCE DA VOIRON SKI M 44.91 46.86 1:31.77
82 213 82/U12 FFS2693304 2008 VALESINI FALIES KEREN SA SC AILLONS 41.46 50.62 1:32.08
83 216 83/U12 FFS2690884 2008 DUCLOUX JADE SA SSC VALLOIRE 45.80 46.80 1:32.60
84 211 84/U12 FFS2692199 2008 MARANGON LILOUE SA TCAM 47.31 46.24 1:33.55
85 223 85/U12 FFS2684979 2008 DUMONT MELINE DA CS AURIS 46.22 50.69 1:36.91
Abandons
156 FFS2666861 2007 SIMOND MARGOT SA SC AILLONS 35.77
162 FFS2672681 2007 BAFFERT ROMY SA SC AILLONS 36.79
195 FFS2683917 2008 CONTE ELYNE SA SC MENUIRES 37.14
203 FFS2697822 2008 BENDRIHEM LINA SA SKISNOW USCC 54.42
244 FFS2671690 2007 METSELAAR FLORE MJ SC J.GESSIEN 37.86
248 FFS2696049 2008 LEE LYIA SA TCAM 39.96
Disqualifiés
171 FFS2688376 2007 REBREYEND LOU DA SC OZ-ALLEMO 43.26
172 FFS2676264 2007 PRIBISE ZOE DA CS AURIS 38.50
238 FFS2691904 2007 ONOL LANG AYLA AP SC MONGENEV 39.35
Non partants
175 FFS2680748 2008 PIATEK MELIE SA CS LA FECLAZ 38.44
190 FFS2677642 2007 CHARBOTEL ILONA DA SC ALPE HUEZ
194 FFS2693699 2007 REGINENSI MANON DA CS CORRENCON
227 FFS2673829 2007 BEAUDOIN LUCE SA CO VAL THO
230 FFS2691599 2007 RAYSSAC AURIACH MAXENCE PE PYRENEES2000